sensor_id;sensor_type;location;lat;lon;timestamp;P1;durP1;ratioP1;P2;durP2;ratioP2
37203;SDS011;23098;48.054;10.636;2022-11-15T04:23:28;6.28;;;3.58;;
37203;SDS011;23098;48.054;10.636;2022-11-15T04:26:14;6.35;;;3.70;;
37203;SDS011;23098;48.054;10.636;2022-11-15T04:28:41;5.53;;;3.95;;
37203;SDS011;23098;48.054;10.636;2022-11-15T04:31:32;5.13;;;3.70;;
37203;SDS011;23098;48.054;10.636;2022-11-15T04:33:57;6.82;;;4.18;;
37203;SDS011;23098;48.054;10.636;2022-11-15T04:36:23;6.82;;;3.92;;
37203;SDS011;23098;48.054;10.636;2022-11-15T04:39:07;6.28;;;3.92;;
37203;SDS011;23098;48.054;10.636;2022-11-15T04:41:33;6.93;;;4.28;;
37203;SDS011;23098;48.054;10.636;2022-11-15T04:43:58;6.22;;;3.85;;
37203;SDS011;23098;48.054;10.636;2022-11-15T04:46:24;8.85;;;4.20;;
37203;SDS011;23098;48.054;10.636;2022-11-15T04:48:50;5.63;;;4.00;;
37203;SDS011;23098;48.054;10.636;2022-11-15T04:51:16;5.43;;;4.15;;
37203;SDS011;23098;48.054;10.636;2022-11-15T04:53:42;9.20;;;4.95;;
37203;SDS011;23098;48.054;10.636;2022-11-15T04:56:08;8.88;;;4.32;;
37203;SDS011;23098;48.054;10.636;2022-11-15T04:58:33;5.57;;;3.97;;
37203;SDS011;23098;48.054;10.636;2022-11-15T05:01:06;7.53;;;4.32;;
37203;SDS011;23098;48.054;10.636;2022-11-15T05:03:35;9.20;;;4.40;;
37203;SDS011;23098;48.054;10.636;2022-11-15T05:06:20;7.47;;;5.05;;
37203;SDS011;23098;48.054;10.636;2022-11-15T05:08:45;8.32;;;5.13;;
37203;SDS011;23098;48.054;10.636;2022-11-15T05:11:11;7.30;;;4.85;;
37203;SDS011;23098;48.054;10.636;2022-11-15T05:13:36;8.82;;;4.45;;
37203;SDS011;23098;48.054;10.636;2022-11-15T05:16:03;6.50;;;4.65;;
37203;SDS011;23098;48.054;10.636;2022-11-15T05:18:29;6.97;;;5.30;;
37203;SDS011;23098;48.054;10.636;2022-11-15T05:20:54;8.65;;;4.82;;
37203;SDS011;23098;48.054;10.636;2022-11-15T05:23:20;7.55;;;4.60;;
37203;SDS011;23098;48.054;10.636;2022-11-15T05:25:45;7.97;;;5.28;;
37203;SDS011;23098;48.054;10.636;2022-11-15T05:28:11;6.50;;;4.28;;
37203;SDS011;23098;48.054;10.636;2022-11-15T05:30:37;6.03;;;3.38;;
37203;SDS011;23098;48.054;10.636;2022-11-15T05:33:02;5.07;;;3.22;;
37203;SDS011;23098;48.054;10.636;2022-11-15T05:35:34;7.43;;;4.10;;
37203;SDS011;23098;48.054;10.636;2022-11-15T05:38:06;6.03;;;3.65;;
37203;SDS011;23098;48.054;10.636;2022-11-15T05:40:32;5.68;;;3.80;;
37203;SDS011;23098;48.054;10.636;2022-11-15T05:42:59;6.07;;;3.65;;
37203;SDS011;23098;48.054;10.636;2022-11-15T05:45:28;6.43;;;3.58;;
37203;SDS011;23098;48.054;10.636;2022-11-15T05:47:54;8.60;;;3.80;;
37203;SDS011;23098;48.054;10.636;2022-11-15T05:50:23;8.60;;;3.53;;
37203;SDS011;23098;48.054;10.636;2022-11-15T05:52:49;7.30;;;3.85;;
37203;SDS011;23098;48.054;10.636;2022-11-15T05:55:15;11.25;;;3.55;;
37203;SDS011;23098;48.054;10.636;2022-11-15T05:57:41;8.40;;;3.33;;
37203;SDS011;23098;48.054;10.636;2022-11-15T06:00:07;6.63;;;3.88;;
37203;SDS011;23098;48.054;10.636;2022-11-15T06:02:34;8.02;;;3.50;;
37203;SDS011;23098;48.054;10.636;2022-11-15T06:04:59;6.15;;;3.47;;
37203;SDS011;23098;48.054;10.636;2022-11-15T06:07:25;8.40;;;3.35;;
37203;SDS011;23098;48.054;10.636;2022-11-15T06:09:52;5.38;;;3.22;;
37203;SDS011;23098;48.054;10.636;2022-11-15T06:12:17;6.93;;;3.50;;
37203;SDS011;23098;48.054;10.636;2022-11-15T06:14:43;6.10;;;3.90;;
37203;SDS011;23098;48.054;10.636;2022-11-15T06:17:09;6.32;;;3.60;;
37203;SDS011;23098;48.054;10.636;2022-11-15T06:19:34;8.10;;;3.03;;
37203;SDS011;23098;48.054;10.636;2022-11-15T06:22:00;4.68;;;2.88;;
37203;SDS011;23098;48.054;10.636;2022-11-15T06:24:25;5.50;;;3.40;;
37203;SDS011;23098;48.054;10.636;2022-11-15T06:26:51;5.75;;;4.10;;
37203;SDS011;23098;48.054;10.636;2022-11-15T06:29:17;8.80;;;4.85;;
37203;SDS011;23098;48.054;10.636;2022-11-15T06:31:42;9.40;;;6.22;;
37203;SDS011;23098;48.054;10.636;2022-11-15T06:34:08;9.10;;;5.75;;
37203;SDS011;23098;48.054;10.636;2022-11-15T06:36:34;9.15;;;5.00;;
37203;SDS011;23098;48.054;10.636;2022-11-15T06:39:01;13.98;;;8.27;;
37203;SDS011;23098;48.054;10.636;2022-11-15T06:41:27;9.10;;;5.85;;
37203;SDS011;23098;48.054;10.636;2022-11-15T06:43:52;8.98;;;5.15;;
37203;SDS011;23098;48.054;10.636;2022-11-15T06:46:18;9.13;;;5.05;;
37203;SDS011;23098;48.054;10.636;2022-11-15T06:48:43;7.80;;;4.93;;
37203;SDS011;23098;48.054;10.636;2022-11-15T06:51:09;8.95;;;4.32;;
37203;SDS011;23098;48.054;10.636;2022-11-15T06:53:35;10.73;;;6.05;;
37203;SDS011;23098;48.054;10.636;2022-11-15T06:56:01;17.60;;;7.18;;
37203;SDS011;23098;48.054;10.636;2022-11-15T06:58:29;12.85;;;6.53;;
37203;SDS011;23098;48.054;10.636;2022-11-15T07:01:06;10.93;;;5.50;;
37203;SDS011;23098;48.054;10.636;2022-11-15T07:03:36;11.25;;;6.85;;
37203;SDS011;23098;48.054;10.636;2022-11-15T07:06:03;28.20;;;16.52;;
37203;SDS011;23098;48.054;10.636;2022-11-15T07:08:29;27.88;;;15.13;;
37203;SDS011;23098;48.054;10.636;2022-11-15T07:10:57;11.52;;;8.05;;
37203;SDS011;23098;48.054;10.636;2022-11-15T07:13:25;8.80;;;6.15;;
37203;SDS011;23098;48.054;10.636;2022-11-15T07:15:52;7.85;;;5.60;;
37203;SDS011;23098;48.054;10.636;2022-11-15T07:18:17;7.07;;;3.45;;
37203;SDS011;23098;48.054;10.636;2022-11-15T07:20:43;4.18;;;3.35;;
37203;SDS011;23098;48.054;10.636;2022-11-15T07:23:09;5.47;;;3.50;;
37203;SDS011;23098;48.054;10.636;2022-11-15T07:25:34;6.60;;;4.00;;
37203;SDS011;23098;48.054;10.636;2022-11-15T07:28:00;5.65;;;3.40;;
37203;SDS011;23098;48.054;10.636;2022-11-15T07:30:27;6.88;;;4.65;;
37203;SDS011;23098;48.054;10.636;2022-11-15T07:32:56;10.38;;;6.35;;
37203;SDS011;23098;48.054;10.636;2022-11-15T07:35:23;6.18;;;4.35;;
37203;SDS011;23098;48.054;10.636;2022-11-15T07:37:57;5.70;;;3.78;;
37203;SDS011;23098;48.054;10.636;2022-11-15T07:40:27;5.10;;;3.38;;
37203;SDS011;23098;48.054;10.636;2022-11-15T07:43:01;6.03;;;3.30;;
37203;SDS011;23098;48.054;10.636;2022-11-15T07:45:28;9.30;;;4.75;;
37203;SDS011;23098;48.054;10.636;2022-11-15T07:47:53;7.93;;;3.70;;
37203;SDS011;23098;48.054;10.636;2022-11-15T07:50:20;8.38;;;5.03;;
37203;SDS011;23098;48.054;10.636;2022-11-15T07:52:53;6.40;;;4.65;;
37203;SDS011;23098;48.054;10.636;2022-11-15T07:55:23;7.97;;;4.13;;
37203;SDS011;23098;48.054;10.636;2022-11-15T07:57:50;5.32;;;3.50;;
37203;SDS011;23098;48.054;10.636;2022-11-15T08:00:15;5.05;;;3.00;;
37203;SDS011;23098;48.054;10.636;2022-11-15T08:02:43;5.68;;;2.75;;
37203;SDS011;23098;48.054;10.636;2022-11-15T08:05:08;6.57;;;4.97;;
37203;SDS011;23098;48.054;10.636;2022-11-15T08:07:35;5.88;;;4.22;;
37203;SDS011;23098;48.054;10.636;2022-11-15T08:10:03;4.43;;;3.20;;
37203;SDS011;23098;48.054;10.636;2022-11-15T08:12:30;5.07;;;2.65;;
37203;SDS011;23098;48.054;10.636;2022-11-15T08:14:56;6.53;;;2.80;;
37203;SDS011;23098;48.054;10.636;2022-11-15T08:17:25;4.35;;;2.80;;
37203;SDS011;23098;48.054;10.636;2022-11-15T08:19:51;3.90;;;2.70;;
37203;SDS011;23098;48.054;10.636;2022-11-15T08:22:16;6.38;;;2.70;;
37203;SDS011;23098;48.054;10.636;2022-11-15T08:24:43;3.28;;;2.60;;
37203;SDS011;23098;48.054;10.636;2022-11-15T08:27:10;4.25;;;2.88;;
37203;SDS011;23098;48.054;10.636;2022-11-15T08:32:07;6.32;;;2.55;;
37203;SDS011;23098;48.054;10.636;2022-11-15T08:34:33;6.65;;;2.75;;
37203;SDS011;23098;48.054;10.636;2022-11-15T08:36:59;9.18;;;2.33;;
37203;SDS011;23098;48.054;10.636;2022-11-15T08:39:24;4.15;;;2.08;;
37203;SDS011;23098;48.054;10.636;2022-11-15T08:41:50;4.63;;;2.35;;
37203;SDS011;23098;48.054;10.636;2022-11-15T08:44:15;9.80;;;2.78;;
37203;SDS011;23098;48.054;10.636;2022-11-15T08:46:44;3.30;;;1.90;;
37203;SDS011;23098;48.054;10.636;2022-11-15T08:49:11;7.65;;;2.33;;
37203;SDS011;23098;48.054;10.636;2022-11-15T08:51:39;4.57;;;2.47;;
37203;SDS011;23098;48.054;10.636;2022-11-15T08:54:05;4.55;;;2.22;;
37203;SDS011;23098;48.054;10.636;2022-11-15T08:56:31;3.88;;;2.45;;
37203;SDS011;23098;48.054;10.636;2022-11-15T08:58:56;3.55;;;2.22;;
37203;SDS011;23098;48.054;10.636;2022-11-15T09:01:22;5.40;;;2.72;;
37203;SDS011;23098;48.054;10.636;2022-11-15T09:03:48;3.58;;;2.30;;
37203;SDS011;23098;48.054;10.636;2022-11-15T09:06:17;9.73;;;2.83;;
37203;SDS011;23098;48.054;10.636;2022-11-15T09:08:43;3.85;;;2.60;;
37203;SDS011;23098;48.054;10.636;2022-11-15T09:11:09;3.53;;;2.45;;
37203;SDS011;23098;48.054;10.636;2022-11-15T09:13:36;3.15;;;2.30;;
37203;SDS011;23098;48.054;10.636;2022-11-15T09:16:02;3.70;;;2.42;;
37203;SDS011;23098;48.054;10.636;2022-11-15T09:18:29;4.50;;;2.58;;
37203;SDS011;23098;48.054;10.636;2022-11-15T09:20:58;4.05;;;2.22;;
37203;SDS011;23098;48.054;10.636;2022-11-15T09:23:24;2.60;;;2.35;;
37203;SDS011;23098;48.054;10.636;2022-11-15T09:25:51;4.13;;;2.10;;
37203;SDS011;23098;48.054;10.636;2022-11-15T09:28:17;3.00;;;2.17;;
37203;SDS011;23098;48.054;10.636;2022-11-15T09:30:42;2.83;;;2.05;;
37203;SDS011;23098;48.054;10.636;2022-11-15T09:33:09;4.38;;;1.85;;
37203;SDS011;23098;48.054;10.636;2022-11-15T09:35:36;3.03;;;1.98;;
37203;SDS011;23098;48.054;10.636;2022-11-15T09:38:01;4.35;;;1.90;;
37203;SDS011;23098;48.054;10.636;2022-11-15T09:40:29;4.50;;;1.95;;
37203;SDS011;23098;48.054;10.636;2022-11-15T09:45:59;3.33;;;2.45;;
37203;SDS011;23098;48.054;10.636;2022-11-15T09:48:48;3.05;;;2.15;;
37203;SDS011;23098;48.054;10.636;2022-11-15T09:51:18;3.78;;;2.13;;
37203;SDS011;23098;48.054;10.636;2022-11-15T09:53:57;3.65;;;2.10;;
37203;SDS011;23098;48.054;10.636;2022-11-15T09:56:36;6.30;;;2.30;;
37203;SDS011;23098;48.054;10.636;2022-11-15T09:59:27;2.72;;;1.90;;
37203;SDS011;23098;48.054;10.636;2022-11-15T10:02:21;3.85;;;2.28;;
37203;SDS011;23098;48.054;10.636;2022-11-15T10:05:03;2.92;;;2.17;;
37203;SDS011;23098;48.054;10.636;2022-11-15T10:10:25;3.20;;;2.13;;
37203;SDS011;23098;48.054;10.636;2022-11-15T10:13:16;2.80;;;1.90;;
37203;SDS011;23098;48.054;10.636;2022-11-15T10:15:49;4.53;;;2.35;;
37203;SDS011;23098;48.054;10.636;2022-11-15T10:18:24;2.80;;;2.10;;
37203;SDS011;23098;48.054;10.636;2022-11-15T10:21:15;2.97;;;2.25;;
37203;SDS011;23098;48.054;10.636;2022-11-15T10:23:44;5.90;;;2.92;;
37203;SDS011;23098;48.054;10.636;2022-11-15T10:26:11;3.05;;;2.50;;
37203;SDS011;23098;48.054;10.636;2022-11-15T10:28:40;3.58;;;2.65;;
37203;SDS011;23098;48.054;10.636;2022-11-15T10:31:20;5.43;;;2.97;;
37203;SDS011;23098;48.054;10.636;2022-11-15T10:33:48;5.15;;;2.72;;
37203;SDS011;23098;48.054;10.636;2022-11-15T10:36:15;3.95;;;2.72;;
37203;SDS011;23098;48.054;10.636;2022-11-15T10:41:15;3.60;;;2.30;;
37203;SDS011;23098;48.054;10.636;2022-11-15T10:43:42;2.63;;;1.85;;
37203;SDS011;23098;48.054;10.636;2022-11-15T10:46:19;6.68;;;2.30;;
37203;SDS011;23098;48.054;10.636;2022-11-15T10:48:47;3.80;;;1.92;;
37203;SDS011;23098;48.054;10.636;2022-11-15T10:51:19;8.25;;;2.25;;
37203;SDS011;23098;48.054;10.636;2022-11-15T10:53:51;4.50;;;2.20;;
37203;SDS011;23098;48.054;10.636;2022-11-15T10:56:17;9.15;;;2.40;;
37203;SDS011;23098;48.054;10.636;2022-11-15T10:58:51;8.32;;;2.42;;
37203;SDS011;23098;48.054;10.636;2022-11-15T11:01:27;4.65;;;2.20;;
37203;SDS011;23098;48.054;10.636;2022-11-15T11:04:01;5.97;;;1.90;;
37203;SDS011;23098;48.054;10.636;2022-11-15T11:06:26;6.35;;;2.13;;
37203;SDS011;23098;48.054;10.636;2022-11-15T11:08:56;4.38;;;2.08;;
37203;SDS011;23098;48.054;10.636;2022-11-15T11:11:23;2.85;;;1.77;;
37203;SDS011;23098;48.054;10.636;2022-11-15T11:13:50;2.70;;;1.80;;
37203;SDS011;23098;48.054;10.636;2022-11-15T11:19:18;3.67;;;2.08;;
37203;SDS011;23098;48.054;10.636;2022-11-15T11:25:11;2.67;;;1.85;;
37203;SDS011;23098;48.054;10.636;2022-11-15T11:30:32;1.50;;;1.40;;
37203;SDS011;23098;48.054;10.636;2022-11-15T11:33:22;1.42;;;1.33;;
37203;SDS011;23098;48.054;10.636;2022-11-15T11:36:03;2.42;;;1.60;;
37203;SDS011;23098;48.054;10.636;2022-11-15T11:38:43;3.05;;;1.70;;
37203;SDS011;23098;48.054;10.636;2022-11-15T11:47:00;3.17;;;1.92;;
37203;SDS011;23098;48.054;10.636;2022-11-15T11:57:52;3.08;;;2.00;;
37203;SDS011;23098;48.054;10.636;2022-11-15T12:00:27;3.40;;;2.05;;
37203;SDS011;23098;48.054;10.636;2022-11-15T12:05:42;3.90;;;2.10;;
37203;SDS011;23098;48.054;10.636;2022-11-15T12:11:12;3.78;;;2.50;;
37203;SDS011;23098;48.054;10.636;2022-11-15T12:13:45;3.90;;;2.40;;
37203;SDS011;23098;48.054;10.636;2022-11-15T12:16:21;3.47;;;2.25;;
37203;SDS011;23098;48.054;10.636;2022-11-15T12:18:55;3.13;;;2.55;;
37203;SDS011;23098;48.054;10.636;2022-11-15T12:24:16;4.00;;;2.92;;
37203;SDS011;23098;48.054;10.636;2022-11-15T12:27:00;5.38;;;3.17;;
37203;SDS011;23098;48.054;10.636;2022-11-15T12:29:44;4.75;;;2.70;;
37203;SDS011;23098;48.054;10.636;2022-11-15T12:34:50;3.85;;;2.75;;
37203;SDS011;23098;48.054;10.636;2022-11-15T12:45:38;5.05;;;2.60;;
37203;SDS011;23098;48.054;10.636;2022-11-15T12:50:59;5.50;;;3.13;;
37203;SDS011;23098;48.054;10.636;2022-11-15T13:01:08;4.53;;;3.25;;
37203;SDS011;23098;48.054;10.636;2022-11-15T13:03:34;7.65;;;3.17;;
37203;SDS011;23098;48.054;10.636;2022-11-15T13:06:01;3.88;;;3.10;;
37203;SDS011;23098;48.054;10.636;2022-11-15T13:08:39;4.97;;;2.83;;
37203;SDS011;23098;48.054;10.636;2022-11-15T13:11:41;4.05;;;3.03;;
37203;SDS011;23098;48.054;10.636;2022-11-15T13:19:53;5.30;;;3.15;;
37203;SDS011;23098;48.054;10.636;2022-11-15T13:22:44;5.90;;;3.60;;
37203;SDS011;23098;48.054;10.636;2022-11-15T13:33:57;5.80;;;3.50;;
37203;SDS011;23098;48.054;10.636;2022-11-15T13:36:32;6.75;;;3.50;;
37203;SDS011;23098;48.054;10.636;2022-11-15T13:39:02;5.53;;;3.65;;
37203;SDS011;23098;48.054;10.636;2022-11-15T13:41:44;5.07;;;3.60;;
37203;SDS011;23098;48.054;10.636;2022-11-15T13:44:22;8.63;;;3.97;;
37203;SDS011;23098;48.054;10.636;2022-11-15T13:47:06;6.40;;;3.63;;
37203;SDS011;23098;48.054;10.636;2022-11-15T13:49:37;6.05;;;3.90;;
37203;SDS011;23098;48.054;10.636;2022-11-15T13:52:04;9.93;;;4.28;;
37203;SDS011;23098;48.054;10.636;2022-11-15T13:54:38;7.35;;;4.25;;
37203;SDS011;23098;48.054;10.636;2022-11-15T13:57:10;8.38;;;3.92;;
37203;SDS011;23098;48.054;10.636;2022-11-15T13:59:53;6.97;;;4.10;;
37203;SDS011;23098;48.054;10.636;2022-11-15T14:02:29;5.13;;;3.72;;
37203;SDS011;23098;48.054;10.636;2022-11-15T14:04:58;7.50;;;3.47;;
37203;SDS011;23098;48.054;10.636;2022-11-15T14:07:31;6.57;;;3.88;;
37203;SDS011;23098;48.054;10.636;2022-11-15T14:10:16;7.95;;;3.22;;
37203;SDS011;23098;48.054;10.636;2022-11-15T14:12:50;6.07;;;3.20;;
37203;SDS011;23098;48.054;10.636;2022-11-15T14:15:33;4.68;;;3.58;;
37203;SDS011;23098;48.054;10.636;2022-11-15T14:18:01;5.28;;;3.58;;
37203;SDS011;23098;48.054;10.636;2022-11-15T14:20:33;5.50;;;3.28;;
37203;SDS011;23098;48.054;10.636;2022-11-15T14:25:54;9.10;;;3.65;;
37203;SDS011;23098;48.054;10.636;2022-11-15T14:30:50;7.00;;;3.65;;
37203;SDS011;23098;48.054;10.636;2022-11-15T14:33:30;5.93;;;3.42;;
37203;SDS011;23098;48.054;10.636;2022-11-15T14:38:50;10.02;;;3.90;;
37203;SDS011;23098;48.054;10.636;2022-11-15T14:41:20;9.77;;;3.58;;
37203;SDS011;23098;48.054;10.636;2022-11-15T14:46:13;8.02;;;4.70;;
37203;SDS011;23098;48.054;10.636;2022-11-15T14:48:39;7.40;;;4.38;;
37203;SDS011;23098;48.054;10.636;2022-11-15T14:51:15;7.13;;;3.95;;
37203;SDS011;23098;48.054;10.636;2022-11-15T14:53:44;8.40;;;4.50;;
37203;SDS011;23098;48.054;10.636;2022-11-15T14:56:13;16.08;;;8.88;;
37203;SDS011;23098;48.054;10.636;2022-11-15T14:58:42;20.30;;;11.60;;
37203;SDS011;23098;48.054;10.636;2022-11-15T15:01:12;27.77;;;17.25;;
37203;SDS011;23098;48.054;10.636;2022-11-15T15:03:40;24.15;;;13.13;;
37203;SDS011;23098;48.054;10.636;2022-11-15T15:06:07;16.27;;;11.05;;
37203;SDS011;23098;48.054;10.636;2022-11-15T15:08:34;19.38;;;11.80;;
37203;SDS011;23098;48.054;10.636;2022-11-15T15:10:59;19.35;;;12.18;;
37203;SDS011;23098;48.054;10.636;2022-11-15T15:13:29;29.55;;;15.60;;
37203;SDS011;23098;48.054;10.636;2022-11-15T15:15:55;36.38;;;15.73;;
37203;SDS011;23098;48.054;10.636;2022-11-15T15:18:21;31.05;;;16.08;;
37203;SDS011;23098;48.054;10.636;2022-11-15T15:20:54;36.67;;;17.65;;
37203;SDS011;23098;48.054;10.636;2022-11-15T15:23:28;55.80;;;23.33;;
37203;SDS011;23098;48.054;10.636;2022-11-15T15:26:06;78.80;;;29.80;;
37203;SDS011;23098;48.054;10.636;2022-11-15T15:28:33;89.55;;;37.47;;
37203;SDS011;23098;48.054;10.636;2022-11-15T15:31:00;41.55;;;19.35;;
37203;SDS011;23098;48.054;10.636;2022-11-15T15:33:26;14.95;;;8.00;;
37203;SDS011;23098;48.054;10.636;2022-11-15T15:35:52;11.57;;;6.97;;
37203;SDS011;23098;48.054;10.636;2022-11-15T15:38:20;8.73;;;5.63;;
37203;SDS011;23098;48.054;10.636;2022-11-15T15:40:46;11.43;;;8.35;;
37203;SDS011;23098;48.054;10.636;2022-11-15T15:43:12;11.55;;;6.60;;
37203;SDS011;23098;48.054;10.636;2022-11-15T15:45:39;9.13;;;5.47;;
37203;SDS011;23098;48.054;10.636;2022-11-15T15:48:13;6.72;;;5.20;;
37203;SDS011;23098;48.054;10.636;2022-11-15T15:50:40;12.13;;;5.72;;
37203;SDS011;23098;48.054;10.636;2022-11-15T15:53:09;14.13;;;6.55;;
37203;SDS011;23098;48.054;10.636;2022-11-15T15:55:35;14.25;;;7.35;;
37203;SDS011;23098;48.054;10.636;2022-11-15T15:58:01;16.90;;;9.98;;
37203;SDS011;23098;48.054;10.636;2022-11-15T16:00:27;16.80;;;10.07;;
37203;SDS011;23098;48.054;10.636;2022-11-15T16:02:54;18.77;;;10.55;;
37203;SDS011;23098;48.054;10.636;2022-11-15T16:05:19;16.55;;;10.45;;
37203;SDS011;23098;48.054;10.636;2022-11-15T16:07:45;17.88;;;9.70;;
37203;SDS011;23098;48.054;10.636;2022-11-15T16:10:15;16.75;;;9.93;;
37203;SDS011;23098;48.054;10.636;2022-11-15T16:12:41;16.95;;;9.65;;
37203;SDS011;23098;48.054;10.636;2022-11-15T16:15:07;12.80;;;8.50;;
37203;SDS011;23098;48.054;10.636;2022-11-15T16:17:33;15.80;;;10.82;;
37203;SDS011;23098;48.054;10.636;2022-11-15T16:20:02;19.70;;;13.98;;
37203;SDS011;23098;48.054;10.636;2022-11-15T16:22:28;23.15;;;14.20;;
37203;SDS011;23098;48.054;10.636;2022-11-15T16:24:54;21.25;;;12.65;;
37203;SDS011;23098;48.054;10.636;2022-11-15T16:27:20;15.70;;;11.40;;
37203;SDS011;23098;48.054;10.636;2022-11-15T16:29:47;15.57;;;10.32;;
37203;SDS011;23098;48.054;10.636;2022-11-15T16:32:14;17.70;;;10.88;;
37203;SDS011;23098;48.054;10.636;2022-11-15T16:34:40;34.75;;;19.98;;
37203;SDS011;23098;48.054;10.636;2022-11-15T16:37:08;22.80;;;16.67;;
37203;SDS011;23098;48.054;10.636;2022-11-15T16:39:49;22.80;;;14.52;;
37203;SDS011;23098;48.054;10.636;2022-11-15T16:42:15;14.63;;;10.27;;
37203;SDS011;23098;48.054;10.636;2022-11-15T16:44:41;21.77;;;11.18;;
37203;SDS011;23098;48.054;10.636;2022-11-15T16:47:13;21.02;;;12.05;;
37203;SDS011;23098;48.054;10.636;2022-11-15T16:49:46;17.40;;;11.27;;
37203;SDS011;23098;48.054;10.636;2022-11-15T16:52:12;17.45;;;11.88;;
37203;SDS011;23098;48.054;10.636;2022-11-15T16:54:41;16.83;;;9.75;;
37203;SDS011;23098;48.054;10.636;2022-11-15T16:57:07;13.35;;;7.95;;
37203;SDS011;23098;48.054;10.636;2022-11-15T16:59:36;15.30;;;10.93;;
37203;SDS011;23098;48.054;10.636;2022-11-15T17:02:01;15.13;;;8.43;;
37203;SDS011;23098;48.054;10.636;2022-11-15T17:04:27;11.95;;;7.40;;
37203;SDS011;23098;48.054;10.636;2022-11-15T17:06:57;10.60;;;7.20;;
37203;SDS011;23098;48.054;10.636;2022-11-15T17:09:24;15.68;;;9.20;;
37203;SDS011;23098;48.054;10.636;2022-11-15T17:11:51;17.15;;;11.05;;
37203;SDS011;23098;48.054;10.636;2022-11-15T17:14:17;17.60;;;10.57;;
37203;SDS011;23098;48.054;10.636;2022-11-15T17:16:43;21.90;;;13.43;;
37203;SDS011;23098;48.054;10.636;2022-11-15T17:19:12;30.08;;;17.75;;
37203;SDS011;23098;48.054;10.636;2022-11-15T17:21:39;28.00;;;17.10;;
37203;SDS011;23098;48.054;10.636;2022-11-15T17:24:06;21.65;;;14.43;;
37203;SDS011;23098;48.054;10.636;2022-11-15T17:26:33;33.97;;;19.63;;
37203;SDS011;23098;48.054;10.636;2022-11-15T17:28:58;41.40;;;25.45;;
37203;SDS011;23098;48.054;10.636;2022-11-15T17:31:25;31.45;;;17.63;;
37203;SDS011;23098;48.054;10.636;2022-11-15T17:33:51;46.30;;;23.63;;
37203;SDS011;23098;48.054;10.636;2022-11-15T17:36:17;62.75;;;27.58;;
37203;SDS011;23098;48.054;10.636;2022-11-15T17:38:43;41.63;;;23.10;;
37203;SDS011;23098;48.054;10.636;2022-11-15T17:41:14;40.42;;;22.55;;
37203;SDS011;23098;48.054;10.636;2022-11-15T17:43:40;38.13;;;19.38;;
37203;SDS011;23098;48.054;10.636;2022-11-15T17:46:06;30.38;;;16.13;;
37203;SDS011;23098;48.054;10.636;2022-11-15T17:48:36;34.38;;;18.73;;
37203;SDS011;23098;48.054;10.636;2022-11-15T17:51:05;30.67;;;15.20;;
37203;SDS011;23098;48.054;10.636;2022-11-15T17:53:36;25.75;;;12.60;;
37203;SDS011;23098;48.054;10.636;2022-11-15T17:56:07;21.45;;;11.25;;
37203;SDS011;23098;48.054;10.636;2022-11-15T17:58:34;15.45;;;9.15;;
37203;SDS011;23098;48.054;10.636;2022-11-15T18:01:20;16.85;;;9.60;;
37203;SDS011;23098;48.054;10.636;2022-11-15T18:03:48;15.60;;;9.65;;
37203;SDS011;23098;48.054;10.636;2022-11-15T18:06:15;16.10;;;9.35;;
37203;SDS011;23098;48.054;10.636;2022-11-15T18:08:42;14.90;;;9.63;;
37203;SDS011;23098;48.054;10.636;2022-11-15T18:11:10;20.25;;;11.10;;
37203;SDS011;23098;48.054;10.636;2022-11-15T18:13:41;31.05;;;15.52;;
37203;SDS011;23098;48.054;10.636;2022-11-15T18:16:09;27.95;;;15.23;;
37203;SDS011;23098;48.054;10.636;2022-11-15T18:18:39;21.83;;;12.93;;
37203;SDS011;23098;48.054;10.636;2022-11-15T18:21:09;15.18;;;9.77;;
37203;SDS011;23098;48.054;10.636;2022-11-15T18:23:40;14.93;;;9.43;;
37203;SDS011;23098;48.054;10.636;2022-11-15T18:26:08;13.18;;;9.35;;
37203;SDS011;23098;48.054;10.636;2022-11-15T18:28:37;14.23;;;9.43;;
37203;SDS011;23098;48.054;10.636;2022-11-15T18:31:11;15.00;;;9.75;;
37203;SDS011;23098;48.054;10.636;2022-11-15T18:33:44;25.55;;;14.20;;
37203;SDS011;23098;48.054;10.636;2022-11-15T18:36:12;16.45;;;9.05;;
37203;SDS011;23098;48.054;10.636;2022-11-15T18:38:39;12.43;;;7.97;;
37203;SDS011;23098;48.054;10.636;2022-11-15T18:41:09;16.33;;;9.32;;
37203;SDS011;23098;48.054;10.636;2022-11-15T18:43:36;15.15;;;8.73;;
37203;SDS011;23098;48.054;10.636;2022-11-15T18:46:04;15.82;;;8.80;;
37203;SDS011;23098;48.054;10.636;2022-11-15T18:48:33;24.00;;;12.43;;
37203;SDS011;23098;48.054;10.636;2022-11-15T18:51:04;33.90;;;16.17;;
37203;SDS011;23098;48.054;10.636;2022-11-15T18:53:34;27.88;;;13.52;;
37203;SDS011;23098;48.054;10.636;2022-11-15T18:56:12;25.73;;;13.15;;
37203;SDS011;23098;48.054;10.636;2022-11-15T18:58:53;24.35;;;13.13;;
37203;SDS011;23098;48.054;10.636;2022-11-15T19:01:22;23.13;;;12.68;;
37203;SDS011;23098;48.054;10.636;2022-11-15T19:03:55;18.80;;;10.73;;
37203;SDS011;23098;48.054;10.636;2022-11-15T19:06:35;20.13;;;12.40;;
37203;SDS011;23098;48.054;10.636;2022-11-15T19:09:04;15.13;;;10.95;;
37203;SDS011;23098;48.054;10.636;2022-11-15T19:11:31;17.13;;;11.35;;
37203;SDS011;23098;48.054;10.636;2022-11-15T19:14:03;19.58;;;13.45;;
37203;SDS011;23098;48.054;10.636;2022-11-15T19:16:31;18.30;;;11.02;;
37203;SDS011;23098;48.054;10.636;2022-11-15T19:19:02;21.08;;;12.52;;
37203;SDS011;23098;48.054;10.636;2022-11-15T19:21:29;18.05;;;11.85;;
37203;SDS011;23098;48.054;10.636;2022-11-15T19:23:57;18.50;;;11.00;;
37203;SDS011;23098;48.054;10.636;2022-11-15T19:26:24;16.58;;;10.35;;
37203;SDS011;23098;48.054;10.636;2022-11-15T19:28:57;16.73;;;10.63;;
37203;SDS011;23098;48.054;10.636;2022-11-15T19:31:25;16.40;;;9.68;;
37203;SDS011;23098;48.054;10.636;2022-11-15T19:33:53;16.52;;;10.25;;
37203;SDS011;23098;48.054;10.636;2022-11-15T19:36:22;17.15;;;10.85;;
37203;SDS011;23098;48.054;10.636;2022-11-15T19:38:52;15.50;;;9.75;;
37203;SDS011;23098;48.054;10.636;2022-11-15T19:41:20;14.27;;;9.45;;
37203;SDS011;23098;48.054;10.636;2022-11-15T19:43:47;16.85;;;9.10;;
37203;SDS011;23098;48.054;10.636;2022-11-15T19:46:15;13.82;;;8.70;;
37203;SDS011;23098;48.054;10.636;2022-11-15T19:48:41;21.50;;;11.38;;
37203;SDS011;23098;48.054;10.636;2022-11-15T19:51:11;70.30;;;26.60;;
37203;SDS011;23098;48.054;10.636;2022-11-15T19:53:38;64.60;;;26.58;;
37203;SDS011;23098;48.054;10.636;2022-11-15T19:56:06;45.90;;;20.08;;
37203;SDS011;23098;48.054;10.636;2022-11-15T19:58:34;42.10;;;18.88;;
37203;SDS011;23098;48.054;10.636;2022-11-15T20:01:00;34.03;;;16.83;;
37203;SDS011;23098;48.054;10.636;2022-11-15T20:03:31;24.80;;;13.50;;
37203;SDS011;23098;48.054;10.636;2022-11-15T20:06:01;19.13;;;11.15;;
37203;SDS011;23098;48.054;10.636;2022-11-15T20:08:27;18.77;;;10.30;;
37203;SDS011;23098;48.054;10.636;2022-11-15T20:10:59;16.25;;;9.05;;
37203;SDS011;23098;48.054;10.636;2022-11-15T20:13:25;19.63;;;11.68;;
37203;SDS011;23098;48.054;10.636;2022-11-15T20:15:51;15.15;;;10.65;;
37203;SDS011;23098;48.054;10.636;2022-11-15T20:18:18;13.98;;;9.70;;
37203;SDS011;23098;48.054;10.636;2022-11-15T20:20:46;13.23;;;9.00;;
37203;SDS011;23098;48.054;10.636;2022-11-15T20:23:12;11.35;;;8.02;;
37203;SDS011;23098;48.054;10.636;2022-11-15T20:25:38;12.13;;;8.57;;
37203;SDS011;23098;48.054;10.636;2022-11-15T20:28:05;12.68;;;7.82;;
37203;SDS011;23098;48.054;10.636;2022-11-15T20:30:31;11.60;;;8.02;;